Terminal Aerodrome Forecast
Issued by NWS

Home | Current Version | Previous Version | Text Only | Print | Product List | Glossary On
Versions: 1 2 3 4 5 6 7 8 9 10 11 12 13 14 15 16 17 18 19 20 21
000
FTUS45 KRIW 301720
TAFLND
TAF
KLND 301720Z 3018/0118 33007KT 5SM -RASN BR SCT007 BKN015
     FM302000 05007KT 6SM -SNRA OVC012
     FM010400 VRB05KT P6SM VCSH OVC012
     FM011000 VRB04KT 3SM BR VCFG OVC002
     FM011500 VRB04KT P6SM SCT005 OVC011=

USA.gov is the U.S. government's official web portal to all federal, state and local government web resources and services.